KMGW

UTC

Morgantown Municipal Airport Walter L. (Bill) Hart Field

Morgantown, West Virginia, United States

TAF Report

KMGW 040520Z 0406/0506 15004KT P6SM SKC FM040900 00000KT 5SM BR SKC FM041300 18003KT P6SM SKC AMD NOT SKED

Issued

Oct 04 05:20 UTC

Valid From

Oct 04 06:00 UTC

Valid To

Oct 05 06:00 UTC

TAF Sections

  1. Oct 04 06:00 UTC - Oct 04 09:00 UTC

    TAF KMGW 040520Z 0406/0506 15004KT P6SM SKC

    Wind

    150° at 4 KTS

    Visibility

    Greater than 6 SM

    Clouds

    • Clear skies
  2. Oct 04 09:00 UTC - Oct 04 13:00 UTC

    FM040900 00000KT 5SM BR SKC

    Visibility

    5 SM

    Conditions

    • Mist

    Clouds

    • Clear skies
  3. Oct 04 13:00 UTC - Oct 05 06:00 UTC

    FM041300 18003KT P6SM SKC AMD NOT SKED

    Wind

    180° at 3 KTS

    Visibility

    Greater than 6 SM

    Clouds

    • Clear skies